Time;durP1;ratioP1;P1;durP2;ratioP2;P2;SDS_P1;SDS_P2;PMS_P1;PMS_P2;Temp;Humidity;BMP_temperature;BMP_pressure;BME280_temperature;BME280_humidity;BME280_pressure;Samples;Min_cycle;Max_cycle;Signal;HPM_P1;HPM_P2
2021/12/07 00:02:20;;;;;;;3.15;0.63;;;;;;;9.82;100.00;100966.91;5074854;28;20091;-70
2021/12/07 00:04:49;;;;;;;1.50;0.55;;;;;;;9.84;100.00;100962.66;5075651;28;20101;-70
2021/12/07 00:07:18;;;;;;;1.38;0.90;;;;;;;9.83;100.00;100960.06;5074553;28;20663;-70
2021/12/07 00:09:50;;;;;;;2.40;0.77;;;;;;;9.83;100.00;100958.34;5076655;28;20083;-70
2021/12/07 00:12:19;;;;;;;1.85;0.63;;;;;;;9.84;100.00;100957.50;5057558;28;20096;-70
2021/12/07 00:14:48;;;;;;;1.20;0.60;;;;;;;9.83;100.00;100955.75;5075122;27;20044;-69
2021/12/07 00:17:17;;;;;;;2.60;0.80;;;;;;;9.84;100.00;100952.31;5074039;28;20053;-70
2021/12/07 00:19:45;;;;;;;1.20;0.70;;;;;;;9.84;100.00;100949.75;5074294;28;20131;-71
2021/12/07 00:22:14;;;;;;;1.25;0.57;;;;;;;9.85;100.00;100945.47;5073665;28;20048;-71
2021/12/07 00:24:43;;;;;;;2.72;0.60;;;;;;;9.85;100.00;100951.53;5073981;28;20102;-71
2021/12/07 00:27:13;;;;;;;1.08;0.63;;;;;;;9.85;100.00;100943.75;5073796;28;20482;-70
2021/12/07 00:29:42;;;;;;;1.30;0.57;;;;;;;9.88;100.00;100955.03;5074404;28;20095;-70
2021/12/07 00:32:23;;;;;;;1.08;0.75;;;;;;;9.81;100.00;100949.66;5073345;28;20048;-70
2021/12/07 00:35:16;;;;;;;1.48;0.60;;;;;;;9.91;100.00;100965.47;5061706;28;20044;-71
2021/12/07 00:37:46;;;;;;;;;;;;;;;9.93;100.00;100967.28;5054328;28;20045;-71
2021/12/07 00:40:19;;;;;;;1.58;0.60;;;;;;;9.96;100.00;100964.81;5050349;28;19940;-70
2021/12/07 00:42:49;;;;;;;1.63;0.73;;;;;;;9.99;100.00;100966.63;5052926;28;20110;-71
2021/12/07 00:45:21;;;;;;;1.02;0.63;;;;;;;9.98;100.00;100964.88;5053829;28;20049;-71
2021/12/07 00:47:50;;;;;;;1.08;0.47;;;;;;;9.96;100.00;100962.22;5053648;28;20490;-71
2021/12/07 00:50:21;;;;;;;1.42;0.73;;;;;;;9.96;100.00;100958.75;5053807;28;20049;-72
2021/12/07 00:52:50;;;;;;;1.63;0.73;;;;;;;9.94;100.00;100961.31;5052844;28;20081;-72
2021/12/07 00:55:21;;;;;;;1.02;0.60;;;;;;;9.94;100.00;100961.31;5053624;28;20087;-70
2021/12/07 00:57:53;;;;;;;1.85;0.73;;;;;;;9.96;100.00;100969.09;5053502;28;20519;-72
2021/12/07 01:00:25;;;;;;;1.60;0.63;;;;;;;9.98;100.00;100970.03;5053351;28;20110;-71
2021/12/07 01:02:54;;;;;;;2.33;0.77;;;;;;;9.99;100.00;100972.69;5064748;28;20045;-72
2021/12/07 01:05:28;;;;;;;0.60;0.47;;;;;;;9.99;100.00;100974.41;5073570;28;20136;-71
2021/12/07 01:24:43;;;;;;;1.45;0.80;;;;;;;9.95;100.00;100970.81;5072931;28;20118;-71
2021/12/07 01:27:14;;;;;;;1.55;0.88;;;;;;;9.97;100.00;100974.34;5072896;28;20141;-71
2021/12/07 01:29:46;;;;;;;1.13;0.70;;;;;;;9.99;100.00;100974.41;5072382;28;20040;-71
2021/12/07 01:32:37;;;;;;;1.10;0.80;;;;;;;9.99;100.00;100979.56;5072382;28;20049;-71
2021/12/07 01:38:17;;;;;;;2.05;1.00;;;;;;;10.00;100.00;100983.91;5074546;28;20044;-71
2021/12/07 01:41:00;;;;;;;2.45;1.13;;;;;;;10.01;100.00;100990.81;5072824;28;20049;-73
2021/12/07 01:43:54;;;;;;;2.10;0.82;;;;;;;10.00;100.00;100987.34;5064359;28;20056;-72
2021/12/07 01:52:24;;;;;;;2.47;0.90;;;;;;;9.95;100.00;100964.75;5073399;28;20513;-72
2021/12/07 02:00:37;;;;;;;1.88;1.40;;;;;;;9.93;100.00;100969.88;5033663;28;20041;-72
2021/12/07 02:03:07;;;;;;;2.00;1.10;;;;;;;9.92;100.00;100967.22;5071538;28;20129;-72
2021/12/07 02:05:36;;;;;;;1.60;0.88;;;;;;;9.93;100.00;100964.69;5075540;28;20049;-71
2021/12/07 02:08:05;;;;;;;2.90;1.40;;;;;;;9.88;100.00;100961.09;5072413;28;20049;-70
2021/12/07 02:10:36;;;;;;;2.05;1.10;;;;;;;9.86;100.00;100953.25;5067820;28;20075;-71
2021/12/07 02:13:18;;;;;;;1.30;0.88;;;;;;;9.84;100.00;100956.63;5060212;28;20117;-72
2021/12/07 02:15:47;;;;;;;2.03;1.40;;;;;;;9.84;100.00;100957.50;5071563;27;20063;-71
2021/12/07 02:18:17;;;;;;;1.45;1.17;;;;;;;9.88;100.00;100962.78;5071999;28;20090;-71
2021/12/07 02:20:50;;;;;;;3.80;1.80;;;;;;;9.91;100.00;100965.47;5071900;28;20056;-74
2021/12/07 02:23:19;;;;;;;2.15;1.00;;;;;;;9.92;100.00;100962.06;5071329;28;20063;-71
2021/12/07 02:25:48;;;;;;;1.95;1.40;;;;;;;9.93;100.00;100958.66;5071406;28;20103;-71
2021/12/07 02:28:16;;;;;;;1.85;1.27;;;;;;;9.95;100.00;100962.19;5071592;28;20094;-71
2021/12/07 02:30:46;;;;;;;2.70;1.40;;;;;;;9.96;100.00;100958.75;5071703;28;20052;-72
2021/12/07 02:33:15;;;;;;;2.65;1.70;;;;;;;9.96;100.00;100954.47;5068388;28;20421;-71
2021/12/07 02:35:43;;;;;;;2.35;1.58;;;;;;;10.00;100.00;100958.03;5051639;28;20439;-71
2021/12/07 02:38:14;;;;;;;1.92;1.42;;;;;;;10.02;100.00;100958.97;5051154;28;20079;-69
2021/12/07 02:40:45;;;;;;;2.13;1.60;;;;;;;10.02;100.00;100953.81;5051639;28;20088;-68
2021/12/07 02:43:13;;;;;;;2.45;1.55;;;;;;;10.04;100.00;100954.75;5050634;28;20061;-68
2021/12/07 02:45:42;;;;;;;4.28;1.88;;;;;;;10.05;100.00;100951.31;5051499;28;20484;-70
2021/12/07 02:48:10;;;;;;;2.17;1.33;;;;;;;10.05;100.00;100956.50;5051025;28;20049;-69
2021/12/07 02:50:39;;;;;;;2.45;1.60;;;;;;;10.06;100.00;100950.50;5051619;28;20418;-70
2021/12/07 02:53:08;;;;;;;1.75;1.30;;;;;;;10.10;100.00;100962.72;5050012;28;20049;-70
2021/12/07 02:55:38;;;;;;;2.33;1.40;;;;;;;10.13;100.00;100959.38;5051274;28;20044;-70
2021/12/07 02:58:06;;;;;;;2.28;1.45;;;;;;;10.19;100.00;100959.56;5050946;28;20045;-69
2021/12/07 03:00:42;;;;;;;1.63;1.42;;;;;;;10.22;100.00;100960.56;5051697;28;20049;-70
2021/12/07 03:03:14;;;;;;;2.35;1.30;;;;;;;10.24;100.00;100958.91;5066953;28;20127;-69
2021/12/07 03:05:50;;;;;;;2.15;1.40;;;;;;;10.27;100.00;100959.00;5071577;28;20138;-70
2021/12/07 03:09:05;;;;;;;2.35;1.38;;;;;;;10.30;100.00;100965.13;5071048;28;20055;-70
2021/12/07 03:28:17;;;;;;;2.60;1.48;;;;;;;10.19;100.00;100956.97;5071053;28;20689;-72
2021/12/07 03:30:46;;;;;;;1.73;1.40;;;;;;;10.20;100.00;100959.63;5071800;28;20082;-72
2021/12/07 03:33:15;;;;;;;2.45;1.65;;;;;;;10.21;100.00;100958.78;5071333;28;20083;-72
2021/12/07 03:35:43;;;;;;;2.80;1.65;;;;;;;10.21;100.00;100955.31;5072595;28;20494;-71
2021/12/07 03:38:13;;;;;;;2.75;1.65;;;;;;;10.23;100.00;100956.25;5072507;28;20047;-71
2021/12/07 03:40:42;;;;;;;2.63;1.73;;;;;;;10.22;100.00;100952.78;5072738;28;20478;-70
2021/12/07 03:43:12;;;;;;;2.33;1.48;;;;;;;10.25;100.00;100955.47;5071619;28;20056;-71
2021/12/07 03:45:43;;;;;;;2.45;1.58;;;;;;;10.29;100.00;100953.03;5072341;28;20056;-71
2021/12/07 03:48:12;;;;;;;3.08;1.80;;;;;;;10.31;100.00;100956.53;5072270;28;20044;-72
2021/12/07 03:50:41;;;;;;;2.10;1.55;;;;;;;10.26;100.00;100943.41;5072474;28;20102;-71
2021/12/07 03:53:10;;;;;;;2.53;1.58;;;;;;;10.35;100.00;100958.41;5071320;28;20055;-71
2021/12/07 03:55:39;;;;;;;3.35;1.70;;;;;;;10.39;100.00;100968.03;5072156;28;20084;-71
2021/12/07 03:58:08;;;;;;;3.20;1.67;;;;;;;10.41;100.00;100956.91;5073888;28;20098;-71
2021/12/07 04:00:40;;;;;;;2.65;1.80;;;;;;;10.42;100.00;100956.09;5073099;28;20049;-71
2021/12/07 04:03:13;;;;;;;2.63;1.75;;;;;;;10.46;100.00;100951.88;5071478;28;20049;-71
2021/12/07 04:05:48;;;;;;;5.68;1.90;;;;;;;10.46;100.00;100951.88;5072328;28;20055;-71
2021/12/07 04:08:18;;;;;;;3.20;2.00;;;;;;;10.43;100.00;100951.78;5071960;28;20518;-71
2021/12/07 04:10:46;;;;;;;3.78;2.35;;;;;;;10.44;100.00;100958.72;5065884;28;20041;-71
2021/12/07 04:13:15;;;;;;;3.67;1.80;;;;;;;10.45;100.00;100960.47;5061468;28;20079;-71
2021/12/07 04:15:44;;;;;;;3.05;1.90;;;;;;;10.48;100.00;100965.75;5073164;27;20391;-72
2021/12/07 04:18:14;;;;;;;3.83;2.30;;;;;;;10.50;100.00;100966.69;5071869;28;20126;-71
2021/12/07 04:20:43;;;;;;;2.38;2.00;;;;;;;10.51;100.00;100980.50;5072015;28;20055;-71
2021/12/07 04:23:11;;;;;;;3.97;2.05;;;;;;;10.53;100.00;100974.53;5070766;28;20544;-71
2021/12/07 04:25:40;;;;;;;5.13;1.77;;;;;;;10.58;100.00;100974.69;5071514;28;20044;-71
2021/12/07 04:28:09;;;;;;;4.10;2.10;;;;;;;10.59;100.00;100973.88;5071496;28;20079;-71
2021/12/07 04:30:40;;;;;;;3.97;2.25;;;;;;;10.61;100.00;100972.22;5070866;28;20094;-71
2021/12/07 04:33:10;;;;;;;4.20;2.25;;;;;;;10.63;100.00;100975.75;5069332;28;20052;-72
2021/12/07 04:35:43;;;;;;;3.30;2.03;;;;;;;10.63;100.00;100973.16;5070412;28;20053;-72
2021/12/07 04:38:11;;;;;;;2.42;1.80;;;;;;;10.64;100.00;100968.00;5070009;28;20102;-71
2021/12/07 04:40:40;;;;;;;3.92;2.40;;;;;;;10.56;100.00;100948.78;5070278;28;20052;-71
2021/12/07 04:43:09;;;;;;;3.70;1.98;;;;;;;10.63;100.00;100955.03;5069327;28;20052;-72
2021/12/07 04:45:51;;;;;;;4.85;2.40;;;;;;;10.64;100.00;100957.66;5071568;28;20475;-72
2021/12/07 04:59:39;;;;;;;5.45;2.30;;;;;;;10.69;100.00;100966.44;5073595;28;20098;-72
2021/12/07 05:02:08;;;;;;;2.78;2.08;;;;;;;10.71;100.00;100965.63;5072939;28;20048;-71
2021/12/07 05:04:37;;;;;;;3.42;2.13;;;;;;;10.68;100.00;100949.16;5073714;28;20079;-71
2021/12/07 05:07:13;;;;;;;3.38;2.28;;;;;;;10.69;100.00;100945.72;5076234;28;20053;-72
2021/12/07 05:10:11;;;;;;;3.45;2.30;;;;;;;10.70;100.00;100951.81;5075862;28;20051;-72
2021/12/07 05:12:54;;;;;;;2.22;1.80;;;;;;;10.73;100.00;100956.22;5042145;28;20040;-72
2021/12/07 05:15:29;;;;;;;5.65;2.65;;;;;;;10.73;100.00;100945.84;5072802;27;20159;-73
2021/12/07 05:18:19;;;;;;;3.60;2.15;;;;;;;10.74;100.00;100952.78;5066336;28;20594;-72
2021/12/07 05:24:03;;;;;;;3.72;1.95;;;;;;;10.75;100.00;100972.66;5063524;28;20079;-73
2021/12/07 05:37:51;;;;;;;2.83;2.30;;;;;;;10.72;100.00;100965.69;5073057;28;20069;-73
2021/12/07 05:40:23;;;;;;;5.45;2.30;;;;;;;10.70;100.00;100962.16;5073434;28;20060;-73
2021/12/07 05:42:53;;;;;;;2.42;1.88;;;;;;;10.69;100.00;100974.19;5072890;28;20175;-73
2021/12/07 05:45:24;;;;;;;3.40;2.17;;;;;;;10.72;100.00;100975.13;5072967;28;20133;-73
2021/12/07 05:47:52;;;;;;;4.00;2.45;;;;;;;10.74;100.00;100976.06;5072908;28;20161;-74
2021/12/07 05:50:23;;;;;;;6.20;2.30;;;;;;;10.74;100.00;100979.53;5073310;28;20087;-74
2021/12/07 05:52:52;;;;;;;5.65;3.00;;;;;;;10.75;100.00;100977.84;5075641;28;20130;-73
2021/12/07 05:55:22;;;;;;;8.25;3.67;;;;;;;10.76;100.00;100982.19;5073109;28;20052;-72
2021/12/07 05:57:51;;;;;;;6.00;3.38;;;;;;;10.77;100.00;100984.81;5072667;28;20098;-72
2021/12/07 06:00:24;;;;;;;10.30;4.50;;;;;;;10.77;100.00;100991.72;5072777;28;20041;-72
2021/12/07 06:02:52;;;;;;;7.72;4.05;;;;;;;10.78;100.00;100991.75;5072281;28;20044;-72
2021/12/07 06:05:21;;;;;;;5.63;3.33;;;;;;;10.76;100.00;100989.94;5072484;28;20053;-71
2021/12/07 06:07:50;;;;;;;6.82;3.50;;;;;;;10.79;100.00;100988.34;5072437;28;20070;-72
2021/12/07 06:10:19;;;;;;;5.70;3.70;;;;;;;10.79;100.00;100988.34;5070140;28;20048;-73
2021/12/07 06:12:49;;;;;;;7.75;3.25;;;;;;;10.80;100.00;100991.81;5058695;28;20048;-72
2021/12/07 06:15:21;;;;;;;8.25;3.65;;;;;;;10.80;100.00;100989.22;5072418;28;20581;-72
2021/12/07 06:17:50;;;;;;;5.75;3.85;;;;;;;10.81;100.00;100970.25;5071683;28;20048;-73
2021/12/07 06:20:20;;;;;;;5.78;3.40;;;;;;;10.83;100.00;100969.47;5072442;28;20509;-71
2021/12/07 06:22:49;;;;;;;6.03;3.33;;;;;;;10.83;100.00;100978.94;5072062;28;20110;-73
2021/12/07 06:25:17;;;;;;;7.07;4.07;;;;;;;10.83;100.00;100973.78;5072154;28;20076;-72
2021/12/07 06:27:46;;;;;;;9.00;4.00;;;;;;;10.83;100.00;100979.81;5072136;28;20056;-72
2021/12/07 06:30:16;;;;;;;7.22;4.15;;;;;;;10.80;100.00;100982.31;5072183;28;20048;-72
2021/12/07 06:32:45;;;;;;;7.95;4.00;;;;;;;10.81;100.00;100976.34;5071459;28;20095;-71
2021/12/07 06:35:13;;;;;;;8.98;4.72;;;;;;;10.82;100.00;100974.63;5072186;28;20077;-72
2021/12/07 06:37:42;;;;;;;11.85;5.72;;;;;;;10.83;100.00;100971.19;5072058;28;20044;-71
2021/12/07 06:40:12;;;;;;;7.80;4.43;;;;;;;10.84;100.00;100975.56;5072023;28;20551;-71
2021/12/07 06:42:40;;;;;;;6.57;4.00;;;;;;;10.83;100.00;100985.00;5071521;28;20044;-71
2021/12/07 06:45:10;;;;;;;8.02;3.92;;;;;;;10.84;100.00;100980.72;5071797;28;20052;-72
2021/12/07 06:47:41;;;;;;;8.63;4.78;;;;;;;10.83;100.00;100978.94;5071919;28;20084;-72
2021/12/07 06:50:11;;;;;;;7.50;4.43;;;;;;;10.82;100.00;100985.84;5074510;28;20052;-71
2021/12/07 06:52:40;;;;;;;7.07;4.00;;;;;;;10.82;100.00;100984.97;5071321;28;20078;-72
2021/12/07 06:55:09;;;;;;;7.38;4.30;;;;;;;10.82;100.00;100987.56;5071984;28;20040;-72
2021/12/07 06:57:38;;;;;;;8.80;4.18;;;;;;;10.84;100.00;100980.72;5071980;28;20075;-72
2021/12/07 07:00:09;;;;;;;10.43;4.03;;;;;;;10.83;100.00;100984.13;5073322;28;20087;-72
2021/12/07 07:02:37;;;;;;;9.02;4.30;;;;;;;10.85;100.00;100978.16;5072521;28;20498;-73
2021/12/07 07:05:08;;;;;;;8.77;4.78;;;;;;;10.85;100.00;100985.94;5072033;28;20079;-72
2021/12/07 07:07:37;;;;;;;7.72;4.50;;;;;;;10.87;100.00;100980.81;5071004;28;20520;-72
2021/12/07 07:10:07;;;;;;;6.97;4.20;;;;;;;10.87;100.00;100983.41;5071282;28;20098;-73
2021/12/07 07:12:36;;;;;;;8.88;4.47;;;;;;;10.88;100.00;100988.63;5056525;28;20091;-73
2021/12/07 07:15:05;;;;;;;7.63;3.90;;;;;;;10.89;100.00;100995.56;5071901;28;20076;-74
2021/12/07 07:17:34;;;;;;;7.80;4.43;;;;;;;10.89;100.00;100990.38;5072130;28;20585;-72
2021/12/07 07:20:03;;;;;;;7.75;4.25;;;;;;;10.88;100.00;100987.72;5063614;28;20080;-73
2021/12/07 07:22:33;;;;;;;7.68;3.40;;;;;;;10.88;100.00;100987.72;5071166;28;20044;-73
2021/12/07 07:25:02;;;;;;;7.13;3.92;;;;;;;10.89;100.00;100997.28;5071646;28;20040;-73
2021/12/07 07:27:30;;;;;;;8.35;3.65;;;;;;;10.87;100.00;100997.22;5071367;28;20052;-73
2021/12/07 07:29:59;;;;;;;7.60;3.60;;;;;;;10.87;100.00;100986.88;5071733;28;20052;-73
2021/12/07 07:32:27;;;;;;;10.55;4.00;;;;;;;10.89;100.00;100984.34;5070822;28;20052;-72
2021/12/07 07:34:56;;;;;;;5.63;3.47;;;;;;;10.86;100.00;100979.06;5071391;28;20140;-73
2021/12/07 07:37:25;;;;;;;5.40;3.40;;;;;;;10.92;100.00;100999.94;5071367;28;20053;-73
2021/12/07 07:39:55;;;;;;;8.43;4.20;;;;;;;10.94;100.00;100993.13;5069952;28;20426;-73
2021/12/07 07:42:23;;;;;;;7.50;4.07;;;;;;;10.92;100.00;100992.19;5070262;28;20080;-73
2021/12/07 07:44:52;;;;;;;5.00;3.30;;;;;;;10.93;100.00;100999.13;5071010;28;20044;-73
2021/12/07 07:47:20;;;;;;;6.97;3.67;;;;;;;10.90;100.00;100991.25;5074004;28;20053;-73
2021/12/07 07:49:49;;;;;;;5.95;3.38;;;;;;;10.89;100.00;100999.88;5071315;28;20106;-73
2021/12/07 07:52:18;;;;;;;5.47;3.17;;;;;;;10.89;100.00;101005.03;5070634;28;20106;-72
2021/12/07 07:54:46;;;;;;;5.82;2.83;;;;;;;10.92;100.00;101002.53;5070847;28;20102;-73
2021/12/07 07:57:17;;;;;;;5.72;2.92;;;;;;;10.95;100.00;101006.94;5070875;28;20048;-73
2021/12/07 07:59:45;;;;;;;4.18;2.80;;;;;;;10.96;100.00;101009.59;5070809;28;20539;-73
2021/12/07 08:02:14;;;;;;;8.25;3.50;;;;;;;10.98;100.00;100999.28;5069784;28;20415;-74
2021/12/07 08:04:42;;;;;;;6.38;3.42;;;;;;;10.96;100.00;101000.94;5070464;28;20464;-74
2021/12/07 08:07:10;;;;;;;5.32;3.00;;;;;;;10.87;100.00;100997.22;5070717;28;20395;-74
2021/12/07 08:09:39;;;;;;;6.43;3.47;;;;;;;10.93;100.00;101000.84;5070854;28;20049;-74
2021/12/07 08:12:08;;;;;;;6.32;3.67;;;;;;;10.93;100.00;101006.03;5053839;28;20052;-74
2021/12/07 08:14:38;;;;;;;6.85;3.30;;;;;;;10.96;100.00;101006.13;5070487;28;20482;-74
2021/12/07 08:17:07;;;;;;;5.15;3.47;;;;;;;10.98;100.00;101018.28;5071974;28;20569;-75
2021/12/07 08:19:36;;;;;;;6.75;3.42;;;;;;;10.99;100.00;101014.84;5072353;28;20060;-75
2021/12/07 08:22:05;;;;;;;6.18;3.05;;;;;;;10.99;100.00;101001.03;5074122;28;20044;-75
2021/12/07 08:24:33;;;;;;;5.32;3.40;;;;;;;10.97;100.00;101006.19;5073977;28;20094;-75
2021/12/07 08:27:02;;;;;;;6.05;2.88;;;;;;;10.99;100.00;100998.44;5074202;28;20052;-75
2021/12/07 08:29:31;;;;;;;6.22;3.60;;;;;;;11.00;100.00;101003.69;5074273;28;20048;-75
2021/12/07 08:32:01;;;;;;;5.72;3.67;;;;;;;11.00;100.00;101003.69;5074072;28;20463;-75
2021/12/07 08:34:30;;;;;;;5.22;2.85;;;;;;;10.98;100.00;101012.22;5074116;28;20040;-75
2021/12/07 08:36:58;;;;;;;6.20;3.50;;;;;;;10.98;100.00;101007.06;5074161;28;20102;-74
2021/12/07 08:39:27;;;;;;;7.15;3.83;;;;;;;11.00;100.00;101013.16;5073848;28;20063;-75
2021/12/07 08:41:56;;;;;;;6.00;3.45;;;;;;;10.98;100.00;101013.09;5074095;28;20052;-76
2021/12/07 08:44:24;;;;;;;5.35;3.38;;;;;;;10.98;100.00;101014.81;5076363;28;20055;-75
2021/12/07 08:46:53;;;;;;;5.78;3.42;;;;;;;10.98;100.00;101015.69;5074220;28;20482;-75
2021/12/07 08:49:23;;;;;;;5.40;3.67;;;;;;;10.99;100.00;101011.38;5073750;28;20045;-75
2021/12/07 08:51:52;;;;;;;5.47;3.38;;;;;;;11.00;100.00;101014.03;5074030;28;20457;-75
2021/12/07 08:54:29;;;;;;;5.53;3.35;;;;;;;11.01;100.00;101010.59;5073469;28;20395;-75
2021/12/07 08:59:45;;;;;;;5.55;3.65;;;;;;;11.02;100.00;101002.03;5073905;28;20051;-75
2021/12/07 09:02:16;;;;;;;5.93;3.25;;;;;;;11.02;100.00;101007.19;5075233;28;20063;-75
2021/12/07 09:04:47;;;;;;;6.03;3.85;;;;;;;11.00;100.00;101007.97;5073907;28;20516;-75
2021/12/07 09:07:16;;;;;;;7.53;3.75;;;;;;;10.96;100.00;101000.94;5073704;28;20040;-75
2021/12/07 09:09:45;;;;;;;5.82;3.92;;;;;;;10.97;100.00;101016.53;5073703;28;20087;-75
2021/12/07 09:12:17;;;;;;;5.53;3.60;;;;;;;10.98;100.00;101007.94;5056643;28;20124;-75
2021/12/07 09:14:45;;;;;;;8.70;4.00;;;;;;;11.01;100.00;101017.50;5074566;28;20084;-76
2021/12/07 09:17:15;;;;;;;7.90;4.10;;;;;;;11.02;100.00;101021.88;5075325;27;20088;-75
2021/12/07 09:19:45;;;;;;;6.40;3.90;;;;;;;11.03;100.00;101018.44;5075363;28;20102;-76
2021/12/07 09:22:14;;;;;;;6.47;3.92;;;;;;;11.04;100.00;101023.66;5074469;28;20056;-75
2021/12/07 09:24:42;;;;;;;6.40;3.80;;;;;;;10.98;100.00;101000.16;5073936;28;20048;-76
2021/12/07 09:27:11;;;;;;;5.25;3.97;;;;;;;11.02;100.00;101007.19;5073550;28;20569;-76
2021/12/07 09:29:39;;;;;;;7.10;4.10;;;;;;;11.02;100.00;101007.19;5073589;28;20460;-75
2021/12/07 09:32:08;;;;;;;6.75;4.05;;;;;;;10.98;100.00;101005.34;5072459;28;20041;-75
2021/12/07 09:34:37;;;;;;;12.43;4.20;;;;;;;10.92;100.00;101005.13;5073849;28;20052;-76
2021/12/07 09:37:07;;;;;;;5.10;3.30;;;;;;;10.89;100.00;101000.75;5073776;28;20060;-76
2021/12/07 09:39:36;;;;;;;6.03;3.53;;;;;;;10.92;100.00;100991.31;5073379;28;20091;-76
2021/12/07 09:42:05;;;;;;;5.70;3.60;;;;;;;10.93;100.00;100991.38;5076020;28;20053;-76
2021/12/07 09:44:33;;;;;;;8.52;4.20;;;;;;;10.94;100.00;100993.13;5073042;28;20076;-76
2021/12/07 09:47:02;;;;;;;7.30;3.83;;;;;;;10.95;100.00;100994.00;5073318;28;20052;-76
2021/12/07 09:49:31;;;;;;;4.85;3.20;;;;;;;10.97;100.00;100997.50;5072750;28;20551;-75
2021/12/07 09:51:59;;;;;;;8.40;4.00;;;;;;;10.97;100.00;100990.66;5072534;28;20044;-75
2021/12/07 09:54:29;;;;;;;7.35;4.38;;;;;;;10.97;100.00;101002.69;5072306;28;20055;-74
2021/12/07 09:56:58;;;;;;;11.55;4.82;;;;;;;10.97;100.00;100998.41;5072826;28;20052;-75
2021/12/07 09:59:26;;;;;;;10.90;5.70;;;;;;;10.98;100.00;101000.16;5072618;28;20122;-75
2021/12/07 10:01:55;;;;;;;19.48;6.00;;;;;;;10.97;100.00;101000.09;5073025;28;20040;-74
2021/12/07 10:04:27;;;;;;;13.32;5.47;;;;;;;10.94;100.00;101007.78;5072358;28;20107;-75
2021/12/07 10:06:56;;;;;;;15.93;6.20;;;;;;;10.91;100.00;101011.16;5072863;28;20497;-75
2021/12/07 10:09:24;;;;;;;14.63;6.35;;;;;;;10.89;100.00;101012.81;5072552;28;20049;-75
2021/12/07 10:11:56;;;;;;;12.70;5.88;;;;;;;10.88;100.00;101013.63;5056640;28;20045;-75
2021/12/07 10:14:37;;;;;;;16.52;5.82;;;;;;;10.88;100.00;101013.63;5071865;28;20049;-75
2021/12/07 10:17:13;;;;;;;10.77;5.85;;;;;;;10.88;100.00;101018.78;5073782;27;20128;-75
2021/12/07 10:19:45;;;;;;;11.73;5.95;;;;;;;10.89;100.00;101021.44;5072001;28;20058;-75
2021/12/07 10:22:18;;;;;;;11.73;5.38;;;;;;;10.90;100.00;101024.91;5071973;28;20049;-75
2021/12/07 10:24:50;;;;;;;10.60;5.20;;;;;;;10.91;100.00;101024.09;5072089;28;20055;-75
2021/12/07 10:27:36;;;;;;;8.48;4.70;;;;;;;10.90;100.00;101024.91;5072182;28;20410;-76
2021/12/07 10:30:07;;;;;;;9.13;5.28;;;;;;;10.88;100.00;101022.28;5072092;28;20501;-75
2021/12/07 10:32:39;;;;;;;9.88;5.20;;;;;;;10.86;100.00;101020.50;5071668;28;20044;-76
2021/12/07 10:35:28;;;;;;;9.23;4.60;;;;;;;10.83;100.00;101025.53;5071938;28;20098;-76
2021/12/07 10:38:14;;;;;;;10.18;5.70;;;;;;;10.82;100.00;101037.63;5074006;28;20126;-75
2021/12/07 10:40:59;;;;;;;10.88;5.50;;;;;;;10.81;100.00;101038.47;5072794;28;20340;-75
2021/12/07 10:43:51;;;;;;;9.48;5.03;;;;;;;10.81;100.00;101037.56;5071084;28;20045;-76
2021/12/07 10:46:42;;;;;;;8.00;4.55;;;;;;;10.80;100.00;101035.81;5072050;28;20045;-75
2021/12/07 10:49:15;;;;;;;8.75;4.80;;;;;;;10.79;100.00;101041.78;5071409;28;20052;-76
2021/12/07 10:51:56;;;;;;;12.68;5.05;;;;;;;10.78;100.00;101043.50;5071598;28;20514;-75
2021/12/07 10:54:25;;;;;;;9.10;4.63;;;;;;;10.75;100.00;101050.31;5071296;28;20087;-75
2021/12/07 10:56:54;;;;;;;10.48;4.97;;;;;;;10.72;100.00;101045.91;5071559;28;20119;-75
2021/12/07 10:59:25;;;;;;;7.10;4.22;;;;;;;10.73;100.00;101050.25;5071746;28;20482;-75
2021/12/07 11:01:54;;;;;;;8.35;4.13;;;;;;;10.76;100.00;101054.66;5072756;28;20082;-76
2021/12/07 11:04:33;;;;;;;8.70;4.43;;;;;;;10.74;100.00;101048.53;5071983;28;20076;-75
2021/12/07 11:07:10;;;;;;;10.95;4.93;;;;;;;10.76;100.00;101057.22;5071772;28;20045;-75
2021/12/07 11:09:47;;;;;;;8.20;4.82;;;;;;;10.75;100.00;101058.06;5071639;28;20539;-76
2021/12/07 11:12:18;;;;;;;11.57;4.95;;;;;;;10.74;100.00;101052.00;5054684;28;20115;-76
2021/12/07 11:15:00;;;;;;;9.73;4.70;;;;;;;10.74;100.00;101056.31;5071016;28;20071;-75
2021/12/07 11:17:38;;;;;;;8.35;6.05;;;;;;;10.72;100.00;101057.94;5072724;27;20049;-74
2021/12/07 11:20:08;;;;;;;8.98;4.50;;;;;;;10.72;100.00;101064.03;5071432;28;20040;-75
2021/12/07 11:22:39;;;;;;;8.32;4.95;;;;;;;10.72;100.00;101064.03;5070925;28;20036;-75
2021/12/07 11:25:10;;;;;;;8.32;4.55;;;;;;;10.58;100.00;101045.44;5062311;28;20102;-75
2021/12/07 11:30:34;;;;;;;8.85;4.43;;;;;;;10.69;100.00;101069.97;5071480;28;20058;-75
2021/12/07 11:33:02;;;;;;;10.15;4.55;;;;;;;10.68;100.00;101068.22;5070430;28;20044;-76
2021/12/07 11:35:34;;;;;;;10.13;4.40;;;;;;;10.66;100.00;101069.88;5073460;28;20150;-76
2021/12/07 11:38:05;;;;;;;6.97;3.78;;;;;;;10.65;100.00;101070.72;5072284;28;20044;-75
2021/12/07 11:40:36;;;;;;;7.20;3.78;;;;;;;10.63;100.00;101062.00;5071367;28;20064;-75
2021/12/07 11:43:15;;;;;;;8.20;3.90;;;;;;;10.60;100.00;101061.88;5070309;28;20608;-76
2021/12/07 11:45:47;;;;;;;7.78;3.80;;;;;;;10.54;100.00;101056.53;5070711;28;20049;-75
2021/12/07 11:48:16;;;;;;;10.57;4.73;;;;;;;10.44;100.00;101049.25;5070959;28;20063;-75
2021/12/07 11:50:46;;;;;;;9.85;4.65;;;;;;;10.38;100.00;101036.13;5071077;28;20374;-75
2021/12/07 11:53:18;;;;;;;6.82;3.85;;;;;;;10.34;100.00;101023.91;5070714;28;20174;-74
2021/12/07 11:55:49;;;;;;;9.35;4.70;;;;;;;10.31;100.00;101022.09;5074701;28;20064;-74
2021/12/07 11:58:19;;;;;;;10.07;3.70;;;;;;;10.33;100.00;101014.38;5074870;28;20137;-75
2021/12/07 12:00:51;;;;;;;9.88;4.07;;;;;;;10.36;100.00;101011.91;5075322;28;20083;-75
2021/12/07 12:03:23;;;;;;;10.45;4.40;;;;;;;10.41;100.00;101018.13;5074495;28;20056;-75
2021/12/07 12:05:53;;;;;;;8.07;3.95;;;;;;;10.45;100.00;101022.56;5074890;28;20052;-75
2021/12/07 12:08:23;;;;;;;8.50;4.50;;;;;;;10.48;100.00;101020.94;5074838;28;20055;-75
2021/12/07 12:10:57;;;;;;;9.50;4.32;;;;;;;10.50;100.00;101021.00;5067748;28;20040;-75
2021/12/07 12:13:39;;;;;;;8.52;4.38;;;;;;;10.50;100.00;101017.56;5054259;28;20516;-75
2021/12/07 12:16:20;;;;;;;12.27;4.73;;;;;;;10.51;100.00;101017.59;5054978;28;20044;-75
2021/12/07 12:19:01;;;;;;;8.35;4.18;;;;;;;10.55;100.00;101009.09;5040640;28;20503;-75
2021/12/07 12:21:37;;;;;;;9.02;4.13;;;;;;;10.50;100.00;100996.84;5034537;28;20049;-74
2021/12/07 12:24:14;;;;;;;9.45;4.78;;;;;;;10.44;100.00;101000.09;5026344;28;20495;-74
2021/12/07 12:26:45;;;;;;;8.40;4.63;;;;;;;10.45;100.00;101014.81;5034670;28;20045;-75
2021/12/07 12:29:20;;;;;;;9.75;4.93;;;;;;;10.47;100.00;101010.56;5034294;28;20504;-75
2021/12/07 12:31:53;;;;;;;9.48;3.92;;;;;;;10.39;100.00;101002.53;5035715;28;20706;-75
2021/12/07 12:34:27;;;;;;;7.82;4.22;;;;;;;10.49;100.00;101014.09;5036437;28;20053;-74
2021/12/07 12:37:03;;;;;;;10.23;4.82;;;;;;;10.51;100.00;101015.00;5035339;28;20099;-75
2021/12/07 12:39:50;;;;;;;10.13;4.78;;;;;;;10.55;100.00;101018.59;5034258;28;20050;-75
2021/12/07 12:42:25;;;;;;;9.85;5.25;;;;;;;10.53;100.00;101018.53;5033932;28;20495;-75
2021/12/07 12:44:59;;;;;;;8.63;4.95;;;;;;;10.57;100.00;101029.88;5034653;28;20107;-75
2021/12/07 12:47:31;;;;;;;7.85;4.43;;;;;;;10.57;100.00;101038.50;5035231;28;20120;-75
2021/12/07 12:50:18;;;;;;;9.85;4.20;;;;;;;10.53;100.00;101033.16;5034929;28;20095;-75
2021/12/07 12:52:49;;;;;;;12.73;4.47;;;;;;;10.60;100.00;101054.13;5034841;28;20046;-75
2021/12/07 12:55:42;;;;;;;11.27;4.75;;;;;;;10.61;100.00;101060.19;5034439;28;20107;-75
2021/12/07 12:58:20;;;;;;;11.25;4.72;;;;;;;10.60;100.00;101074.81;5029941;28;20081;-75